MMGL/GDL METAR and TAF weather

Enter ICAO airport designator
Station Type Date Time Source
MMGL METAR 2019/02/20 22:41 UTC NOAA

MMGL 202241Z 23010KT 10SM FEW030 28/M04 A2993 RMK 8/100


Station Type Date Time Source
MMGL Decoded METAR 2019/02/20 22:41 UTC NOAA

Don Miguel / Guadalaj, Mexico (MMGL) 20-31N 103-19W
Feb 20, 2019 - 05:41 PM EST / 2019.02.20 2241 UTC
Wind: from the SW (230 degrees) at 12 MPH (10 KT):0
Visibility: 10 mile(s):0
Sky conditions: mostly clear
Temperature: 82 F (28 C)
Dew Point: 24 F (-4 C)
Relative Humidity: 12%
Pressure (altimeter): 29.93 in. Hg (1013 hPa)
ob: MMGL 202241Z 23010KT 10SM FEW030 28/M04 A2993 RMK 8/100
cycle: 22

Station Type Date Time Source
MMGL TAF 2019/02/20 18:33 UTC NOAA

TAF MMGL 201626Z 2018/2124 20012KT P6SM SKC TX27/2021Z TN07/2112Z
FM210000 16005KT 6SM HZ SCT010
FM211200 00000KT 1/4SM FG VV003
FM211500 00000KT 2SM BR OVC005
FM211600 21010KT 6SM HZ SCT020
FM212000 25015KT P6SM SCT030 BKN300


Example: see airport list